Time;durP1;ratioP1;P1;durP2;ratioP2;P2;SDS_P1;SDS_P2;PMS_P1;PMS_P2;Temp;Humidity;BMP_temperature;BMP_pressure;BME280_temperature;BME280_humidity;BME280_pressure;Samples;Min_cycle;Max_cycle;Signal;HPM_P1;HPM_P2
2023/12/26 00:01:45;;;;;;;0.00;0.00;;;;;;;9.06;86.76;99927.41;15663495;28;20056;-48
2023/12/26 00:09:19;;;;;;;0.05;0.05;;;;;;;9.11;86.65;99912.31;15668707;28;20072;-49
2023/12/26 00:16:53;;;;;;;;;;;;;;;8.86;88.44;99903.47;15669251;28;20043;-49
2023/12/26 00:24:27;;;;;;;0.00;0.00;;;;;;;9.16;87.41;99883.00;15670765;28;19920;-49
2023/12/26 00:32:02;;;;;;;0.00;0.00;;;;;;;9.13;87.09;99864.69;15664250;28;20041;-52
2023/12/26 00:39:38;;;;;;;0.10;0.10;;;;;;;9.18;86.90;99853.31;15643483;28;20029;-49
2023/12/26 00:47:13;;;;;;;0.00;0.00;;;;;;;8.99;87.81;99839.09;15653437;28;20114;-49
2023/12/26 00:54:46;;;;;;;0.00;0.00;;;;;;;9.14;88.03;99828.06;15632458;28;20068;-50
2023/12/26 01:02:22;;;;;;;0.00;0.00;;;;;;;9.17;88.13;99825.72;15648863;28;20045;-50
2023/12/26 01:09:55;;;;;;;0.00;0.00;;;;;;;9.08;88.96;99811.00;15647158;28;20033;-49
2023/12/26 01:17:31;;;;;;;0.00;0.00;;;;;;;9.58;86.70;99796.63;15649016;28;20159;-51
2023/12/26 01:25:05;;;;;;;0.00;0.00;;;;;;;9.50;86.63;99786.19;15647803;28;20043;-53
2023/12/26 01:32:41;;;;;;;0.00;0.00;;;;;;;9.60;87.32;99765.84;15640566;28;20434;-49
2023/12/26 01:40:15;;;;;;;0.00;0.00;;;;;;;9.80;86.29;99752.19;15648067;28;20471;-50
2023/12/26 01:47:51;;;;;;;;;;;;;;;9.77;86.07;99743.78;15641445;28;20140;-51
2023/12/26 01:55:25;;;;;;;0.10;0.10;;;;;;;9.29;88.96;99715.22;15645207;28;20040;-50
2023/12/26 02:03:00;;;;;;;0.00;0.00;;;;;;;9.71;87.88;99695.41;15627246;28;20052;-51
2023/12/26 02:10:34;;;;;;;0.43;0.43;;;;;;;9.62;87.30;99656.63;15646490;28;20305;-52
2023/12/26 02:18:12;;;;;;;0.00;0.00;;;;;;;9.89;87.05;99689.16;15632575;28;20052;-49
2023/12/26 02:25:48;;;;;;;1.60;0.65;;;;;;;9.67;87.82;99685.41;15647270;28;20040;-53
2023/12/26 02:33:22;;;;;;;0.00;0.00;;;;;;;10.15;86.95;99679.84;15663921;28;20055;-47
2023/12/26 02:40:57;;;;;;;0.00;0.00;;;;;;;9.75;88.05;99660.13;15656984;28;20563;-47
2023/12/26 02:48:31;;;;;;;0.00;0.00;;;;;;;9.35;90.93;99663.41;15651649;28;20119;-47
2023/12/26 02:56:06;;;;;;;;;;;;;;;9.52;90.88;99651.00;15650676;28;20113;-49
2023/12/26 03:03:40;;;;;;;0.00;0.00;;;;;;;9.84;89.72;99623.88;15653902;28;19924;-50
2023/12/26 03:11:14;;;;;;;0.00;0.00;;;;;;;9.75;89.76;99631.47;15649520;28;20119;-50
2023/12/26 03:18:49;;;;;;;0.00;0.00;;;;;;;10.03;88.88;99611.19;15660680;28;20176;-48
2023/12/26 03:26:25;;;;;;;0.00;0.00;;;;;;;10.03;88.51;99595.13;15652147;28;20148;-51
2023/12/26 03:34:00;;;;;;;0.00;0.00;;;;;;;9.77;89.91;99601.75;15654057;28;20041;-45
2023/12/26 03:41:36;;;;;;;;;;;;;;;9.93;88.65;99604.56;15652966;28;20091;-47
2023/12/26 03:49:11;;;;;;;0.00;0.00;;;;;;;10.04;88.52;99621.69;15650228;28;19920;-50
2023/12/26 03:56:48;;;;;;;0.00;0.00;;;;;;;9.78;90.84;99679.22;15653663;28;20041;-50
2023/12/26 04:04:23;;;;;;;0.20;0.20;;;;;;;9.60;89.92;99665.91;15652253;28;20049;-50
2023/12/26 04:11:58;;;;;;;0.00;0.00;;;;;;;9.45;90.02;99672.53;15640914;28;20270;-47
2023/12/26 04:19:32;;;;;;;0.00;0.00;;;;;;;9.47;90.38;99664.28;15668821;28;20049;-49
2023/12/26 04:27:08;;;;;;;0.00;0.00;;;;;;;9.19;90.37;99664.88;15650344;28;20128;-50
2023/12/26 04:34:41;;;;;;;0.00;0.00;;;;;;;9.26;89.68;99678.16;15647058;28;20072;-50
2023/12/26 04:42:17;;;;;;;0.00;0.00;;;;;;;9.12;90.48;99685.56;15650421;28;20041;-48
2023/12/26 04:49:56;;;;;;;0.00;0.00;;;;;;;9.23;89.64;99702.72;15648738;28;20146;-49
2023/12/26 04:57:31;;;;;;;0.00;0.00;;;;;;;9.22;89.57;99703.75;15645397;28;20124;-48
2023/12/26 05:05:08;;;;;;;0.00;0.00;;;;;;;9.42;89.42;99696.28;15649019;28;20513;-49
2023/12/26 05:12:43;;;;;;;0.10;0.10;;;;;;;9.13;91.03;99689.88;15648083;28;20136;-51
2023/12/26 05:20:17;;;;;;;0.00;0.00;;;;;;;9.12;90.83;99706.97;15642389;28;20059;-53
2023/12/26 05:27:54;;;;;;;0.22;0.22;;;;;;;9.24;91.20;99720.44;15643566;28;20110;-51
2023/12/26 05:35:28;;;;;;;0.00;0.00;;;;;;;8.89;92.40;99731.75;15647322;28;20128;-51
2023/12/26 05:43:05;;;;;;;0.00;0.00;;;;;;;9.13;90.56;99716.63;15650194;28;20033;-51
2023/12/26 05:50:54;;;;;;;0.00;0.00;;;;;;;8.84;90.93;99670.88;15634479;28;20126;-51
2023/12/26 05:58:33;;;;;;;0.00;0.00;;;;;;;9.32;90.28;99731.63;15610666;28;20041;-45
2023/12/26 06:06:10;;;;;;;0.00;0.00;;;;;;;9.05;90.56;99715.09;15594807;28;20053;-45
2023/12/26 06:13:46;;;;;;;0.00;0.00;;;;;;;9.12;91.96;99768.56;15601856;28;20068;-49
2023/12/26 06:21:20;;;;;;;0.00;0.00;;;;;;;9.15;90.79;99779.63;15586485;28;20049;-47
2023/12/26 06:28:54;;;;;;;;;;;;;;;9.00;90.37;99795.28;15604863;28;20513;-46
2023/12/26 06:36:30;;;;;;;0.00;0.00;;;;;;;9.24;89.31;99804.25;15603289;28;19921;-51
2023/12/26 06:44:06;;;;;;;0.00;0.00;;;;;;;8.89;89.43;99817.41;15592946;28;20068;-50
2023/12/26 06:51:40;;;;;;;0.00;0.00;;;;;;;8.71;89.38;99831.56;15598096;28;20456;-50
2023/12/26 06:59:17;;;;;;;0.00;0.00;;;;;;;8.64;87.77;99804.88;15603637;28;20136;-51
2023/12/26 07:06:51;;;;;;;0.00;0.00;;;;;;;8.87;86.16;99830.19;15603162;28;20048;-50
2023/12/26 07:14:25;;;;;;;;;;;;;;;8.99;85.14;99857.84;15609224;28;20046;-51
2023/12/26 07:21:59;;;;;;;0.00;0.00;;;;;;;8.91;85.52;99884.91;15609633;28;19920;-49
2023/12/26 07:29:33;;;;;;;;;;;;;;;8.85;85.49;99899.16;15600700;28;20126;-49
2023/12/26 07:37:07;;;;;;;0.00;0.00;;;;;;;8.75;86.27;99905.00;15619536;28;20357;-50
2023/12/26 07:44:41;;;;;;;;;;;;;;;8.68;86.74;99937.19;15607860;28;20038;-50
2023/12/26 07:52:15;;;;;;;0.00;0.00;;;;;;;8.94;85.69;99946.00;15617188;28;20011;-47
2023/12/26 07:59:51;;;;;;;0.00;0.00;;;;;;;8.77;86.22;99964.50;15604793;28;20048;-48
2023/12/26 08:07:25;;;;;;;0.10;0.10;;;;;;;8.80;85.38;99968.56;15598459;28;20132;-55
2023/12/26 08:14:59;;;;;;;0.00;0.00;;;;;;;8.80;84.29;99989.97;15615138;28;20041;-48
2023/12/26 08:22:33;;;;;;;0.00;0.00;;;;;;;8.71;83.72;100023.38;15591190;28;20081;-51
2023/12/26 08:30:09;;;;;;;0.00;0.00;;;;;;;8.94;82.58;100028.97;15614177;28;20175;-50
2023/12/26 08:37:42;;;;;;;0.00;0.00;;;;;;;8.82;82.40;100055.63;15582553;28;20340;-48
2023/12/26 08:45:18;;;;;;;0.00;0.00;;;;;;;8.67;82.11;100080.00;15610034;28;20052;-49
2023/12/26 08:52:51;;;;;;;1.05;0.93;;;;;;;8.79;81.64;100068.63;15599075;28;20038;-49
2023/12/26 09:00:26;;;;;;;0.00;0.00;;;;;;;8.78;81.29;100094.56;15617434;28;20128;-51
2023/12/26 09:08:01;;;;;;;0.00;0.00;;;;;;;8.93;80.24;100097.75;15614887;28;20057;-50
2023/12/26 09:15:36;;;;;;;0.00;0.00;;;;;;;8.94;79.55;100107.41;15614251;28;20405;-50
2023/12/26 09:23:12;;;;;;;0.00;0.00;;;;;;;8.92;78.97;100125.56;15611770;28;20465;-53
2023/12/26 09:30:47;;;;;;;0.20;0.20;;;;;;;9.12;76.85;100124.63;15591887;28;20038;-49
2023/12/26 09:38:23;;;;;;;0.00;0.00;;;;;;;9.51;74.64;100136.91;15610207;28;20045;-50
2023/12/26 09:46:01;;;;;;;0.00;0.00;;;;;;;9.71;73.40;100147.47;15609223;28;20052;-48
2023/12/26 09:53:41;;;;;;;0.00;0.00;;;;;;;9.63;72.26;100156.59;15610804;28;20134;-49
2023/12/26 10:01:17;;;;;;;0.00;0.00;;;;;;;10.07;70.24;100172.72;15592329;28;20041;-48
2023/12/26 10:08:51;;;;;;;0.00;0.00;;;;;;;10.08;67.37;100174.38;15568152;28;20135;-51
2023/12/26 10:16:26;;;;;;;0.00;0.00;;;;;;;9.89;67.92;100195.78;15619443;28;20132;-50
2023/12/26 10:23:59;;;;;;;0.80;0.30;;;;;;;10.12;65.85;100194.34;15614119;28;20042;-54
2023/12/26 10:31:34;;;;;;;;;;;;;;;10.00;64.69;100214.88;15623950;28;20049;-51
2023/12/26 10:39:08;;;;;;;0.00;0.00;;;;;;;10.29;64.14;100234.84;15624723;28;19928;-50
2023/12/26 10:46:44;;;;;;;4.55;0.80;;;;;;;9.67;65.30;100253.47;15621676;28;20077;-52
2023/12/26 10:54:20;;;;;;;0.00;0.00;;;;;;;9.60;64.03;100258.03;15624449;28;20095;-51
2023/12/26 13:58:48;;;;;;;0.00;0.00;;;;;;;9.35;59.67;100426.72;15676626;28;20072;-52
2023/12/26 14:06:59;;;;;;;0.00;0.00;;;;;;;9.35;58.35;100448.97;15654624;28;20041;-57
2023/12/26 14:15:10;;;;;;;0.47;0.32;;;;;;;9.19;58.28;100460.94;15676581;28;20612;-54
2023/12/26 14:23:21;;;;;;;0.00;0.00;;;;;;;9.17;58.71;100480.91;15676058;28;20045;-52
2023/12/26 14:31:33;;;;;;;0.00;0.00;;;;;;;8.98;59.72;100487.94;15678224;28;20044;-49
2023/12/26 14:39:44;;;;;;;0.00;0.00;;;;;;;8.95;60.00;100485.66;15689867;28;20622;-52
2023/12/26 14:47:55;;;;;;;0.52;0.10;;;;;;;9.04;60.59;100505.00;15669092;28;20071;-48
2023/12/26 14:56:07;;;;;;;0.00;0.00;;;;;;;9.10;59.84;100501.53;15687800;28;20048;-49
2023/12/26 15:03:45;;;;;;;0.00;0.00;;;;;;;8.97;60.16;100512.22;15688388;28;20053;-56
2023/12/26 15:11:20;;;;;;;0.00;0.00;;;;;;;8.77;59.96;100530.97;15668555;28;20095;-54
2023/12/26 15:18:57;;;;;;;0.00;0.00;;;;;;;8.53;60.15;100548.38;15685775;28;20041;-54
2023/12/26 15:26:32;;;;;;;0.52;0.52;;;;;;;8.39;59.72;100550.19;15667048;28;20045;-54
2023/12/26 15:34:07;;;;;;;0.00;0.00;;;;;;;8.28;61.22;100566.78;15682436;28;20055;-53
2023/12/26 15:41:41;;;;;;;0.00;0.00;;;;;;;8.48;61.34;100565.03;15681916;28;20533;-51
2023/12/26 15:49:17;;;;;;;0.20;0.20;;;;;;;8.46;60.84;100567.09;15679487;28;20127;-50
2023/12/26 15:56:52;;;;;;;0.00;0.00;;;;;;;8.48;60.62;100575.72;15664619;28;20052;-49
2023/12/26 16:04:28;;;;;;;0.00;0.00;;;;;;;8.38;60.99;100576.09;15664065;28;20059;-53
2023/12/26 16:12:01;;;;;;;0.13;0.10;;;;;;;8.32;61.36;100590.25;15682408;28;20071;-54
2023/12/26 16:19:40;;;;;;;0.00;0.00;;;;;;;8.03;62.11;100610.06;15665803;28;20084;-53
2023/12/26 16:27:15;;;;;;;0.00;0.00;;;;;;;8.22;62.22;100621.06;15682318;28;20143;-52
2023/12/26 16:34:51;;;;;;;4.72;0.98;;;;;;;8.24;61.73;100629.69;15680524;28;20136;-50
2023/12/26 16:42:25;;;;;;;0.00;0.00;;;;;;;8.26;61.93;100644.53;15679788;28;20055;-50
2023/12/26 16:50:00;;;;;;;;;;;;;;;8.19;62.02;100655.16;15641627;28;20502;-53
2023/12/26 16:57:34;;;;;;;0.00;0.00;;;;;;;8.28;61.91;100653.16;15660204;28;19955;-51
2023/12/26 17:05:09;;;;;;;0.00;0.00;;;;;;;8.23;62.33;100674.31;15678690;28;20059;-54
2023/12/26 17:12:43;;;;;;;0.00;0.00;;;;;;;8.32;61.51;100653.59;15679473;28;20068;-53
2023/12/26 17:20:19;;;;;;;0.00;0.00;;;;;;;8.36;61.89;100660.22;15680273;28;20037;-52
2023/12/26 17:27:53;;;;;;;0.00;0.00;;;;;;;8.22;62.68;100683.38;15660767;28;20120;-53
2023/12/26 17:35:27;;;;;;;;;;;;;;;8.45;62.08;100695.69;15676632;28;20069;-53
2023/12/26 17:43:01;;;;;;;0.00;0.00;;;;;;;8.24;63.22;100693.88;15675988;28;19936;-52
2023/12/26 17:50:36;;;;;;;0.00;0.00;;;;;;;8.07;63.80;100717.41;15671135;28;20049;-57
2023/12/26 17:58:10;;;;;;;0.05;0.05;;;;;;;8.11;64.10;100734.69;15656951;28;20072;-52
2023/12/26 18:05:45;;;;;;;0.00;0.00;;;;;;;8.13;63.94;100736.16;15678157;28;20045;-52
2023/12/26 18:13:18;;;;;;;0.00;0.00;;;;;;;8.15;64.41;100757.34;15687989;28;20077;-54
2023/12/26 18:20:53;;;;;;;;;;;;;;;8.04;64.20;100760.56;15670689;28;20414;-53
2023/12/26 18:28:27;;;;;;;0.00;0.00;;;;;;;8.32;63.95;100776.63;15686836;28;19921;-52
2023/12/26 18:36:06;;;;;;;0.00;0.00;;;;;;;8.19;64.12;100785.34;15685385;28;20060;-52
2023/12/26 18:43:40;;;;;;;0.00;0.00;;;;;;;8.12;64.64;100790.66;15685045;28;20041;-57
2023/12/26 18:51:22;;;;;;;0.00;0.00;;;;;;;8.12;66.40;100833.44;15683636;28;20099;-53
2023/12/26 18:58:56;;;;;;;0.00;0.00;;;;;;;7.31;74.89;100861.31;15686617;28;20335;-54
2023/12/26 19:06:32;;;;;;;0.00;0.00;;;;;;;6.89;79.68;100908.97;15686713;28;20204;-53
2023/12/26 19:14:05;;;;;;;0.00;0.00;;;;;;;6.72;81.35;100912.00;15684412;28;20559;-57
2023/12/26 19:21:43;;;;;;;0.55;0.30;;;;;;;6.41;82.72;100928.06;15665492;28;20075;-53
2023/12/26 19:29:18;;;;;;;0.00;0.00;;;;;;;6.58;81.86;100945.63;15686149;28;20107;-55
2023/12/26 19:36:52;;;;;;;;;;;;;;;6.41;82.84;100952.91;15681671;28;20049;-54
2023/12/26 19:44:27;;;;;;;0.05;0.05;;;;;;;6.65;81.97;100951.88;15676731;28;20388;-55
2023/12/26 19:52:03;;;;;;;0.00;0.00;;;;;;;6.82;80.74;100989.94;15679659;28;20033;-51
2023/12/26 19:59:36;;;;;;;0.00;0.00;;;;;;;6.51;81.56;100982.00;15663083;28;20461;-53
2023/12/26 20:07:11;;;;;;;;;;;;;;;6.46;80.68;100995.84;15663930;28;20057;-51
2023/12/26 20:14:45;;;;;;;0.00;0.00;;;;;;;6.37;81.23;101011.06;15662415;28;20375;-52
2023/12/26 20:22:20;;;;;;;0.20;0.13;;;;;;;6.28;82.74;101040.63;15660861;28;20068;-52
2023/12/26 20:29:53;;;;;;;0.00;0.00;;;;;;;6.54;81.81;101073.16;15661633;28;20041;-52
2023/12/26 20:37:29;;;;;;;0.00;0.00;;;;;;;5.87;82.46;101076.25;15661234;28;20049;-54
2023/12/26 20:45:03;;;;;;;0.00;0.00;;;;;;;5.72;83.44;101091.25;15679035;28;20037;-53
2023/12/26 20:52:37;;;;;;;0.00;0.00;;;;;;;5.72;82.42;101125.03;15678773;28;20043;-51
2023/12/26 21:00:12;;;;;;;0.05;0.05;;;;;;;6.05;80.60;101124.00;15679437;28;20045;-52
2023/12/26 21:07:47;;;;;;;0.00;0.00;;;;;;;5.77;79.25;101131.53;15660309;28;20059;-55
2023/12/26 21:15:21;;;;;;;0.00;0.00;;;;;;;5.44;78.06;101141.38;15660748;28;20457;-55
2023/12/26 21:22:57;;;;;;;0.00;0.00;;;;;;;5.41;79.32;101165.69;15665510;28;20037;-52
2023/12/26 21:30:31;;;;;;;0.00;0.00;;;;;;;5.22;79.20;101177.50;15677632;28;20399;-52
2023/12/26 21:38:08;;;;;;;0.00;0.00;;;;;;;5.29;77.89;101204.25;15679626;28;20084;-53
2023/12/26 21:45:42;;;;;;;0.00;0.00;;;;;;;5.10;78.07;101208.88;15656939;28;20471;-53
2023/12/26 21:53:17;;;;;;;0.00;0.00;;;;;;;5.09;76.15;101217.88;15656189;28;20531;-54
2023/12/26 22:00:51;;;;;;;0.00;0.00;;;;;;;4.98;76.92;101235.94;15673885;28;20075;-51
2023/12/26 22:08:27;;;;;;;0.00;0.00;;;;;;;5.07;77.06;101250.94;15671667;28;20068;-52
2023/12/26 22:16:01;;;;;;;0.00;0.00;;;;;;;5.16;75.42;101251.81;15652122;28;20041;-52
2023/12/26 22:23:38;;;;;;;0.00;0.00;;;;;;;5.15;75.97;101256.28;15672296;28;20131;-52
2023/12/26 22:31:18;;;;;;;2.17;1.75;;;;;;;5.25;74.96;101267.63;15656577;28;20043;-53
2023/12/26 22:38:53;;;;;;;0.00;0.00;;;;;;;5.25;75.00;101285.44;15674065;28;20437;-54
2023/12/26 22:46:29;;;;;;;0.00;0.00;;;;;;;5.25;74.41;101293.41;15671563;28;20104;-50
2023/12/26 22:54:03;;;;;;;0.57;0.57;;;;;;;5.43;73.97;101303.94;15683070;28;20128;-48
2023/12/26 23:01:44;;;;;;;0.00;0.00;;;;;;;5.30;74.11;101312.38;15683474;28;20102;-47
2023/12/26 23:09:18;;;;;;;0.00;0.00;;;;;;;5.03;74.15;101330.25;15682474;28;20037;-53
2023/12/26 23:16:52;;;;;;;0.00;0.00;;;;;;;4.96;74.22;101336.38;15679809;28;20044;-48
2023/12/26 23:24:45;;;;;;;0.00;0.00;;;;;;;4.94;74.53;101355.13;15653194;28;20110;-51
2023/12/26 23:32:36;;;;;;;;;;;;;;;4.92;74.07;101370.44;15652964;28;20505;-49
2023/12/26 23:40:29;;;;;;;4.47;1.00;;;;;;;5.06;73.70;101372.50;15665679;28;19929;-50
2023/12/26 23:48:04;;;;;;;0.00;0.00;;;;;;;5.04;73.43;101382.50;15675219;28;20629;-48
2023/12/26 23:55:40;;;;;;;0.32;0.32;;;;;;;4.85;73.44;101385.38;15676006;22;20127;-48
